< < Back
Terminal Aerodrome Forecast


Current Version              Previous Versions:   1  2  3  4  5  6  7  8  9  

Terminal Aerodrome Forecast

505
FTUS42 KGSP 011200 RRA
TAFAND
TAF
KAND 011225Z 0112/0212 05007KT P6SM -RA OVC007
     FM011400 05005KT 6SM -SHRA OVC035
     FM011900 12005KT P6SM -SHRA VCTS OVC040CB
     FM020300 07005KT P6SM BKN019=

Latest METAR

970
SAUS70 KWBC 011600 RRX
MTRAND
METAR KAND 011556Z AUTO 06010KT 10SM OVC016 21/18 A3011 RMK AO2 RAE02
SLP190 P0000 T02110178


USA.gov is the U.S. government's official web portal to all federal, state and local government web resources and services.